createdAt,value
2022-08-03T00:01:31.451Z,4.68
2022-08-03T00:04:34.327Z,4.30
2022-08-03T00:07:36.129Z,4.22
2022-08-03T00:10:38.530Z,4.37
2022-08-03T00:13:40.568Z,4.60
2022-08-03T00:16:42.209Z,4.72
2022-08-03T00:19:44.085Z,4.57
2022-08-03T00:22:45.785Z,5.00
2022-08-03T00:25:47.457Z,4.47
2022-08-03T00:28:50.612Z,4.28
2022-08-03T00:31:59.451Z,4.45
2022-08-03T00:35:06.355Z,4.60
2022-08-03T00:38:10.621Z,4.50
2022-08-03T00:41:12.435Z,4.22
2022-08-03T00:44:17.749Z,4.53
2022-08-03T00:47:19.396Z,4.00
2022-08-03T00:50:23.536Z,4.10
2022-08-03T00:53:26.931Z,4.72
2022-08-03T00:56:28.605Z,4.50
2022-08-03T00:59:31.399Z,4.35
2022-08-03T01:02:33.505Z,4.07
2022-08-03T01:05:44.906Z,4.50
2022-08-03T01:08:49.425Z,4.60
2022-08-03T01:12:04.256Z,4.53
2022-08-03T01:15:16.032Z,4.47
2022-08-03T01:18:22.882Z,4.12
2022-08-03T01:21:31.833Z,4.30
2022-08-03T01:25:31.065Z,4.70
2022-08-03T01:28:51.774Z,4.87
2022-08-03T01:33:00.026Z,4.47
2022-08-03T01:35:28.745Z,4.50
2022-08-03T01:38:38.935Z,4.68
2022-08-03T01:41:48.910Z,5.15
2022-08-03T01:44:53.589Z,4.68
2022-08-03T01:47:57.198Z,4.30
2022-08-03T01:51:01.259Z,5.20
2022-08-03T01:54:05.190Z,5.18
2022-08-03T01:57:10.273Z,4.95
2022-08-03T02:00:14.639Z,4.70
2022-08-03T02:03:18.029Z,5.20
2022-08-03T02:07:02.722Z,4.97
2022-08-03T02:09:50.369Z,5.50
2022-08-03T02:12:54.075Z,5.15
2022-08-03T02:15:58.331Z,4.97
2022-08-03T02:19:05.462Z,5.07
2022-08-03T02:22:12.499Z,5.00
2022-08-03T02:25:16.160Z,4.62
2022-08-03T02:28:21.605Z,4.47
2022-08-03T02:31:28.872Z,4.57
2022-08-03T02:34:34.395Z,5.25
2022-08-03T02:37:49.810Z,4.95
2022-08-03T02:40:55.772Z,4.62
2022-08-03T02:44:06.306Z,5.18
2022-08-03T02:47:12.643Z,5.03
2022-08-03T02:50:17.116Z,4.93
2022-08-03T02:53:20.356Z,5.15
2022-08-03T02:56:25.903Z,5.10
2022-08-03T02:59:31.401Z,5.72
2022-08-03T03:02:35.409Z,5.70
2022-08-03T03:05:54.682Z,5.37
2022-08-03T03:08:59.919Z,5.82
2022-08-03T03:12:02.944Z,5.95
2022-08-03T03:15:08.244Z,5.53
2022-08-03T03:18:11.470Z,5.80
2022-08-03T03:21:16.637Z,6.05
2022-08-03T03:24:21.114Z,6.30
2022-08-03T03:27:23.519Z,5.93
2022-08-03T03:30:26.357Z,5.78
2022-08-03T03:33:28.780Z,5.35
2022-08-03T03:36:30.663Z,5.90
2022-08-03T03:39:32.625Z,6.00
2022-08-03T03:42:34.956Z,6.72
2022-08-03T03:45:37.491Z,5.85
2022-08-03T03:48:39.644Z,6.30
2022-08-03T03:51:42.964Z,6.20
2022-08-03T03:54:45.742Z,6.25
2022-08-03T03:57:47.624Z,7.40
2022-08-03T04:00:49.975Z,6.47
2022-08-03T04:03:51.848Z,7.20
2022-08-03T04:07:12.188Z,6.20
2022-08-03T04:10:46.853Z,6.28
2022-08-03T04:14:01.877Z,6.57
2022-08-03T04:17:07.416Z,6.50
2022-08-03T04:20:10.893Z,6.10
2022-08-03T04:23:15.685Z,6.62
2022-08-03T04:26:21.672Z,6.78
2022-08-03T04:29:26.084Z,7.25
2022-08-03T04:32:29.146Z,6.40
2022-08-03T04:36:02.025Z,7.05
2022-08-03T04:39:08.584Z,7.05
2022-08-03T04:42:12.750Z,7.55
2022-08-03T04:45:16.774Z,7.05
2022-08-03T04:48:20.200Z,7.47
2022-08-03T04:51:22.354Z,6.68
2022-08-03T04:54:24.286Z,6.65
2022-08-03T04:57:26.130Z,6.95
2022-08-03T05:00:28.508Z,7.10
2022-08-03T05:03:31.904Z,7.20
2022-08-03T05:06:34.150Z,7.35
2022-08-03T05:09:50.688Z,7.47
2022-08-03T05:12:54.270Z,7.28
2022-08-03T05:15:56.328Z,7.62
2022-08-03T05:18:57.900Z,7.68
2022-08-03T05:21:59.878Z,7.87
2022-08-03T05:25:02.567Z,8.02
2022-08-03T05:28:04.743Z,7.80
2022-08-03T05:31:06.649Z,8.48
2022-08-03T05:34:08.292Z,8.48
2022-08-03T05:37:10.523Z,8.40
2022-08-03T05:40:12.817Z,7.72
2022-08-03T05:43:14.460Z,8.05
2022-08-03T05:46:16.517Z,8.70
2022-08-03T05:49:19.257Z,7.85
2022-08-03T05:52:21.558Z,8.30
2022-08-03T05:55:23.901Z,8.77
2022-08-03T05:58:25.784Z,7.03
2022-08-03T06:01:33.201Z,7.95
2022-08-03T06:04:35.082Z,7.85
2022-08-03T06:07:37.398Z,8.70
2022-08-03T06:10:39.135Z,7.10
2022-08-03T06:13:41.207Z,8.35
2022-08-03T06:16:42.961Z,6.97
2022-08-03T06:19:44.884Z,7.45
2022-08-03T06:22:51.137Z,7.32
2022-08-03T06:26:02.235Z,6.30
2022-08-03T06:29:04.253Z,7.35
2022-08-03T06:32:06.277Z,6.80
2022-08-03T06:35:09.761Z,7.53
2022-08-03T06:38:13.020Z,6.72
2022-08-03T06:41:14.956Z,7.37
2022-08-03T06:44:16.670Z,7.15
2022-08-03T06:47:18.728Z,6.87
2022-08-03T06:50:26.002Z,6.40
2022-08-03T06:53:28.023Z,6.70
2022-08-03T06:56:29.867Z,6.62
2022-08-03T07:00:10.994Z,6.60
2022-08-03T07:02:58.090Z,5.90
2022-08-03T07:09:02.805Z,6.22
2022-08-03T07:12:06.565Z,5.75
2022-08-03T07:15:08.816Z,5.68
2022-08-03T07:18:29.325Z,5.57
2022-08-03T07:21:31.996Z,5.87
2022-08-03T07:24:33.917Z,5.75
2022-08-03T07:27:35.923Z,5.55
2022-08-03T07:30:37.916Z,4.35
2022-08-03T07:46:34.174Z,5.15
2022-08-03T07:49:40.036Z,4.72
2022-08-03T07:52:53.069Z,4.95
2022-08-03T07:55:54.888Z,5.30
2022-08-03T07:59:16.097Z,5.87
2022-08-03T08:02:18.305Z,5.10
2022-08-03T08:05:20.322Z,4.97
2022-08-03T08:08:21.933Z,5.12
2022-08-03T08:11:23.629Z,5.75
2022-08-03T08:14:25.624Z,5.10
2022-08-03T08:17:27.712Z,5.70
2022-08-03T08:20:34.905Z,5.30
2022-08-03T08:23:42.169Z,5.30
2022-08-03T08:26:46.057Z,5.12
2022-08-03T08:29:54.318Z,5.12
2022-08-03T08:32:57.890Z,5.10
2022-08-03T08:35:59.725Z,4.93
2022-08-03T08:39:02.307Z,4.40
2022-08-03T08:42:03.963Z,4.80
2022-08-03T08:45:07.180Z,5.45
2022-08-03T08:48:10.755Z,4.35
2022-08-03T08:51:13.776Z,4.22
2022-08-03T08:54:16.467Z,4.10
2022-08-03T08:57:40.823Z,4.10
2022-08-03T09:00:42.071Z,4.20
2022-08-03T09:03:43.880Z,4.20
2022-08-03T09:07:04.479Z,3.60
2022-08-03T09:10:13.287Z,4.12
2022-08-03T09:13:15.888Z,3.60
2022-08-03T09:16:20.606Z,3.83
2022-08-03T09:19:22.485Z,3.60
2022-08-03T09:22:25.873Z,3.58
2022-08-03T09:25:31.914Z,3.47
2022-08-03T09:32:02.550Z,3.22
2022-08-03T09:35:04.748Z,3.50
2022-08-03T09:38:14.328Z,3.60
2022-08-03T09:41:19.726Z,3.20
2022-08-03T09:44:34.814Z,3.23
2022-08-03T09:47:36.843Z,3.05
2022-08-03T09:50:57.093Z,2.83
2022-08-03T09:54:26.045Z,3.20
2022-08-03T09:57:31.083Z,3.10
2022-08-03T10:00:32.778Z,3.10
2022-08-03T10:04:03.614Z,2.65
2022-08-03T10:07:04.619Z,3.12
2022-08-03T10:10:30.089Z,2.90
2022-08-03T10:13:29.151Z,2.80
2022-08-03T10:16:36.428Z,2.75
2022-08-03T10:19:38.382Z,2.67
2022-08-03T10:22:41.653Z,2.67
2022-08-03T10:25:46.442Z,2.72
2022-08-03T10:28:50.678Z,2.75
2022-08-03T10:31:58.424Z,2.45
2022-08-03T10:35:20.326Z,2.80
2022-08-03T10:38:34.520Z,2.50
2022-08-03T10:41:42.826Z,3.10
2022-08-03T10:44:44.573Z,2.72
2022-08-03T10:47:51.276Z,2.60
2022-08-03T10:50:53.750Z,2.80
2022-08-03T10:53:55.875Z,2.92
2022-08-03T10:57:16.273Z,2.72
2022-08-03T11:00:22.365Z,3.15
2022-08-03T11:03:24.320Z,3.00
2022-08-03T11:06:26.734Z,3.05
2022-08-03T11:09:43.777Z,2.95
2022-08-03T11:12:46.562Z,2.80
2022-08-03T11:15:53.037Z,2.90
2022-08-03T11:19:07.510Z,3.08
2022-08-03T11:22:09.903Z,2.90
2022-08-03T11:25:53.488Z,2.65
2022-08-03T11:28:42.037Z,2.65
2022-08-03T11:31:50.750Z,2.70
2022-08-03T11:35:15.302Z,2.40
2022-08-03T11:38:19.436Z,2.90
2022-08-03T11:41:43.276Z,2.70
2022-08-03T11:44:47.665Z,2.92
2022-08-03T11:47:52.722Z,3.10
2022-08-03T11:50:54.971Z,3.25
2022-08-03T11:54:04.820Z,2.83
2022-08-03T11:57:06.836Z,2.78
2022-08-03T12:00:32.100Z,2.70
2022-08-03T12:03:35.761Z,2.90
2022-08-03T12:06:55.676Z,2.90
2022-08-03T12:10:11.237Z,2.65
2022-08-03T12:14:28.931Z,2.85
2022-08-03T12:16:35.047Z,3.00
2022-08-03T12:19:43.916Z,2.83
2022-08-03T12:22:45.796Z,2.40
2022-08-03T12:25:49.502Z,2.70
2022-08-03T12:28:51.653Z,2.85
2022-08-03T12:31:53.398Z,2.67
2022-08-03T12:35:00.838Z,2.55
2022-08-03T12:38:03.296Z,2.40
2022-08-03T12:41:16.192Z,2.45
2022-08-03T12:44:17.934Z,2.33
2022-08-03T12:47:19.893Z,2.35
2022-08-03T12:50:35.667Z,2.17
2022-08-03T12:53:37.466Z,2.40
2022-08-03T12:56:58.479Z,2.20
2022-08-03T13:00:21.570Z,2.20
2022-08-03T13:03:42.341Z,2.10
2022-08-03T13:06:44.938Z,2.20
2022-08-03T13:09:53.212Z,1.75
2022-08-03T13:12:58.144Z,1.70
2022-08-03T13:15:59.893Z,1.50
2022-08-03T13:19:01.532Z,1.58
2022-08-03T13:22:22.609Z,1.52
2022-08-03T13:25:24.235Z,1.30
2022-08-03T13:28:26.105Z,1.48
2022-08-03T13:31:27.871Z,1.58
2022-08-03T13:34:30.347Z,1.67
2022-08-03T13:37:32.567Z,1.30
2022-08-03T13:40:41.543Z,1.60
2022-08-03T13:43:43.571Z,1.67
2022-08-03T13:46:46.530Z,1.60
2022-08-03T13:50:00.541Z,1.65
2022-08-03T13:53:04.317Z,1.50
2022-08-03T13:56:05.990Z,1.95
2022-08-03T13:59:07.914Z,1.87
2022-08-03T14:02:09.666Z,1.70
2022-08-03T14:05:11.453Z,1.73
2022-08-03T14:08:13.508Z,1.95
2022-08-03T14:11:16.245Z,1.60
2022-08-03T14:14:18.010Z,1.80
2022-08-03T14:17:20.121Z,1.85
2022-08-03T14:20:36.494Z,1.60
2022-08-03T14:23:40.700Z,2.08
2022-08-03T14:26:43.278Z,1.80
2022-08-03T14:29:45.091Z,1.77
2022-08-03T14:32:46.805Z,2.30
2022-08-03T14:35:49.550Z,1.90
2022-08-03T14:38:51.406Z,1.80
2022-08-03T14:41:53.789Z,1.67
2022-08-03T14:45:01.493Z,2.10
2022-08-03T14:50:32.074Z,1.80
2022-08-03T14:51:28.128Z,1.80
2022-08-03T14:57:35.334Z,1.80
2022-08-03T15:00:37.181Z,1.70
2022-08-03T15:03:38.998Z,1.98
2022-08-03T15:06:40.704Z,1.80
2022-08-03T15:09:42.616Z,2.60
2022-08-03T15:12:44.369Z,1.87
2022-08-03T15:15:46.973Z,2.08
2022-08-03T15:18:48.670Z,1.98
2022-08-03T15:21:50.377Z,2.10
2022-08-03T15:24:53.248Z,2.03
2022-08-03T15:28:03.340Z,2.00
2022-08-03T15:31:06.840Z,1.90
2022-08-03T15:34:08.842Z,2.03
2022-08-03T15:37:16.229Z,2.20
2022-08-03T15:40:18.518Z,1.90
2022-08-03T15:43:21.319Z,1.87
2022-08-03T15:46:30.397Z,1.80
2022-08-03T15:49:32.117Z,2.00
2022-08-03T15:52:36.151Z,1.83
2022-08-03T15:55:37.854Z,2.22
2022-08-03T15:59:03.990Z,1.87
2022-08-03T16:02:01.704Z,1.85
2022-08-03T16:05:04.005Z,2.10
2022-08-03T16:08:08.012Z,2.15
2022-08-03T16:11:13.532Z,2.05
2022-08-03T16:14:32.424Z,2.30
2022-08-03T16:17:37.877Z,1.80
2022-08-03T16:20:39.826Z,1.80
2022-08-03T16:23:47.399Z,2.03
2022-08-03T16:26:49.466Z,1.90
2022-08-03T16:29:51.103Z,2.05
2022-08-03T16:32:53.006Z,1.90
2022-08-03T16:35:54.712Z,2.10
2022-08-03T16:38:56.382Z,2.17
2022-08-03T16:42:00.474Z,2.35
2022-08-03T16:45:04.784Z,2.00
2022-08-03T16:48:06.516Z,2.12
2022-08-03T16:51:08.357Z,2.00
2022-08-03T16:54:12.403Z,2.50
2022-08-03T16:57:15.894Z,2.00
2022-08-03T17:00:33.987Z,2.03
2022-08-03T17:03:42.503Z,2.60
2022-08-03T17:07:01.389Z,1.60
2022-08-03T17:10:05.043Z,1.83
2022-08-03T17:13:08.701Z,2.20
2022-08-03T17:16:15.528Z,2.37
2022-08-03T17:19:18.288Z,2.20
2022-08-03T17:22:23.176Z,2.03
2022-08-03T17:25:39.845Z,2.22
2022-08-03T17:28:56.441Z,2.22
2022-08-03T17:32:06.545Z,2.17
2022-08-03T17:35:11.281Z,1.80
2022-08-03T17:38:17.499Z,2.40
2022-08-03T17:41:24.126Z,2.00
2022-08-03T17:44:32.005Z,2.00
2022-08-03T17:47:43.763Z,2.20
2022-08-03T17:51:17.262Z,2.10
2022-08-03T17:54:30.587Z,2.12
2022-08-03T17:58:01.467Z,2.90
2022-08-03T18:02:00.846Z,2.10
2022-08-03T18:05:00.633Z,2.17
2022-08-03T18:08:06.915Z,2.50
2022-08-03T18:11:21.941Z,2.58
2022-08-03T18:14:57.520Z,2.62
2022-08-03T18:18:11.020Z,2.47
2022-08-03T18:21:16.911Z,2.95
2022-08-03T18:24:20.285Z,2.42
2022-08-03T18:27:45.977Z,2.97
2022-08-03T18:30:54.248Z,3.15
2022-08-03T18:34:17.323Z,2.58
2022-08-03T18:37:25.259Z,2.70
2022-08-03T18:40:28.492Z,2.45
2022-08-03T18:43:46.558Z,2.55
2022-08-03T18:46:49.471Z,2.58
2022-08-03T18:50:19.193Z,2.70
2022-08-03T18:57:03.494Z,2.17
2022-08-03T19:00:10.551Z,2.20
2022-08-03T19:03:23.633Z,2.47
2022-08-03T19:06:28.978Z,2.20
2022-08-03T19:09:47.621Z,2.40
2022-08-03T19:12:54.533Z,2.33
2022-08-03T19:15:59.478Z,2.37
2022-08-03T19:19:03.554Z,2.40
2022-08-03T19:22:10.662Z,2.70
2022-08-03T19:25:12.420Z,2.28
2022-08-03T19:28:17.291Z,2.50
2022-08-03T19:31:21.862Z,2.53
2022-08-03T19:34:33.715Z,2.62
2022-08-03T19:44:19.953Z,2.72
2022-08-03T19:47:32.457Z,2.78
2022-08-03T19:50:36.323Z,2.60
2022-08-03T19:53:49.947Z,2.37
2022-08-03T19:56:55.674Z,2.62
2022-08-03T19:59:59.642Z,2.87
2022-08-03T20:03:21.921Z,2.70
2022-08-03T20:06:24.788Z,2.67
2022-08-03T20:09:30.427Z,2.60
2022-08-03T20:12:39.112Z,2.97
2022-08-03T20:15:42.034Z,2.80
2022-08-03T20:18:44.581Z,2.80
2022-08-03T20:21:51.797Z,2.70
2022-08-03T20:24:56.703Z,2.65
2022-08-03T20:28:13.962Z,2.72
2022-08-03T20:31:17.439Z,2.70
2022-08-03T20:34:19.393Z,3.60
2022-08-03T20:37:21.141Z,3.10
2022-08-03T20:40:23.740Z,3.22
2022-08-03T20:43:29.619Z,2.77
2022-08-03T20:46:46.510Z,2.62
2022-08-03T20:49:54.353Z,2.92
2022-08-03T20:52:56.140Z,3.10
2022-08-03T20:56:01.972Z,3.47
2022-08-03T20:59:07.505Z,2.97
2022-08-03T21:02:19.707Z,3.22
2022-08-03T21:05:51.345Z,2.95
2022-08-03T21:09:00.136Z,2.70
2022-08-03T21:12:08.235Z,3.25
2022-08-03T21:13:02.694Z,2.65
2022-08-03T21:13:08.187Z,2.47
2022-08-03T21:15:15.869Z,3.75
2022-08-03T21:18:49.284Z,2.85
2022-08-03T21:21:52.003Z,3.17
2022-08-03T21:24:57.344Z,2.40
2022-08-03T21:28:00.158Z,3.03
2022-08-03T21:31:02.249Z,3.37
2022-08-03T21:34:05.878Z,2.80
2022-08-03T21:37:07.741Z,2.83
2022-08-03T21:40:12.423Z,3.25
2022-08-03T21:43:14.183Z,3.00
2022-08-03T21:46:19.223Z,3.30
2022-08-03T21:50:04.121Z,3.15
2022-08-03T21:52:46.767Z,2.90
2022-08-03T21:56:01.377Z,2.83
2022-08-03T21:59:09.588Z,3.55
2022-08-03T22:02:24.399Z,3.50
2022-08-03T22:05:43.060Z,3.28
2022-08-03T22:08:47.742Z,2.87
2022-08-03T22:11:54.115Z,3.22
2022-08-03T22:15:00.884Z,3.33
2022-08-03T22:18:04.308Z,3.58
2022-08-03T22:21:07.386Z,3.75
2022-08-03T22:24:09.287Z,3.15
2022-08-03T22:27:31.962Z,3.90
2022-08-03T22:30:34.740Z,3.10
2022-08-03T22:33:37.185Z,3.53
2022-08-03T22:36:40.607Z,3.60
2022-08-03T22:39:44.496Z,3.70
2022-08-03T22:42:52.037Z,3.37
2022-08-03T22:46:10.405Z,3.28
2022-08-03T22:49:14.682Z,3.60
2022-08-03T22:52:17.129Z,3.70
2022-08-03T22:55:24.796Z,3.70
2022-08-03T22:58:26.821Z,4.20
2022-08-03T23:01:29.031Z,3.58
2022-08-03T23:04:33.182Z,3.70
2022-08-03T23:07:39.621Z,3.62
2022-08-03T23:10:46.807Z,3.20
2022-08-03T23:13:53.305Z,3.80
2022-08-03T23:16:56.457Z,3.53
2022-08-03T23:20:17.161Z,3.47
2022-08-03T23:23:20.722Z,3.75
2022-08-03T23:26:22.876Z,3.40
2022-08-03T23:29:27.731Z,3.35
2022-08-03T23:32:31.076Z,3.60
2022-08-03T23:36:27.889Z,3.28
2022-08-03T23:39:14.891Z,3.35
2022-08-03T23:42:19.210Z,3.60
2022-08-03T23:45:21.580Z,3.45
2022-08-03T23:48:23.248Z,3.30
2022-08-03T23:51:36.676Z,3.50
2022-08-03T23:54:44.024Z,3.40
2022-08-03T23:58:03.598Z,3.95
